Time;durP1;ratioP1;P1;durP2;ratioP2;P2;SDS_P1;SDS_P2;PMS_P1;PMS_P2;Temp;Humidity;BMP_temperature;BMP_pressure;BME280_temperature;BME280_humidity;BME280_pressure;Samples;Min_cycle;Max_cycle;Signal;HPM_P1;HPM_P2
2023/03/16 00:03:31;;;;;;;;;;;5.30;51.80;;;3.71;55.77;101759.97;12257616;19;19914;-85
2023/03/16 00:07:33;;;;;;;;;;;5.20;51.90;;;3.67;55.88;101755.69;12260264;19;20217;-85
2023/03/16 00:11:34;;;;;;;;;;;5.20;51.90;;;3.31;55.88;101704.41;12257936;19;19918;-85
2023/03/16 00:15:36;;;;;;;;;;;5.20;51.90;;;3.37;55.98;101718.97;12261437;19;19918;-85
2023/03/16 00:20:12;;;;;;;;;;;5.10;52.00;;;3.61;55.75;101769.53;12258571;19;19914;-85
2023/03/16 00:24:16;;;;;;;;;;;5.10;52.00;;;3.42;55.88;101739.59;12254740;19;19922;-85
2023/03/16 00:28:18;;;;;;;;;;;5.10;52.00;;;3.43;55.70;101755.06;12255501;19;19919;-85
2023/03/16 00:32:22;;;;;;;;;;;5.00;52.00;;;3.48;55.82;101773.97;12276303;19;19918;-85
2023/03/16 00:36:24;;;;;;;;;;;5.00;51.90;;;3.31;55.75;101750.00;12309716;19;19918;-85
2023/03/16 00:40:25;;;;;;;;;;;5.00;51.90;;;3.31;55.79;101756.03;12308643;19;19915;-85
2023/03/16 00:44:27;;;;;;;;;;;5.00;52.00;;;3.07;56.05;101720.09;12305357;19;19922;-85
2023/03/16 00:48:28;;;;;;;;;;;4.90;52.00;;;3.27;55.75;101763.81;12288607;19;19919;-85
2023/03/16 00:52:29;;;;;;;;;;;5.00;52.00;;;3.26;55.92;101759.50;12269457;19;19947;-85
2023/03/16 00:56:33;;;;;;;;;;;4.90;52.00;;;3.29;55.87;101782.72;12270741;19;19919;-86
2023/03/16 01:00:35;;;;;;;;;;;5.10;52.10;;;3.14;55.78;101759.63;12271935;19;19922;-86
2023/03/16 01:04:40;;;;;;;;;;;4.90;52.00;;;3.14;56.12;101762.22;12267864;19;20379;-86
2023/03/16 01:08:42;;;;;;;;;;;4.90;52.00;;;3.24;56.01;101787.06;12270273;19;20330;-86
2023/03/16 01:12:44;;;;;;;;;;;4.80;52.00;;;3.21;56.16;101776.75;12267668;19;19965;-86
2023/03/16 01:16:45;;;;;;;;;;;4.80;52.10;;;3.20;55.96;101781.06;12271548;19;19911;-85
2023/03/16 01:20:50;;;;;;;;;;;4.80;52.10;;;3.14;55.98;101777.69;12268899;19;20269;-86
2023/03/16 01:24:52;;;;;;;;;;;4.80;52.50;;;3.19;56.05;101783.69;12267530;19;19918;-86
2023/03/16 01:28:55;;;;;;;;;;;4.90;52.20;;;3.13;56.11;101778.53;12270068;19;19922;-86
2023/03/16 01:32:57;;;;;;;;;;;5.20;52.30;;;3.22;56.11;101784.50;12263509;19;19945;-86
2023/03/16 01:36:59;;;;;;;;;;;4.80;52.10;;;3.26;56.01;101787.91;12265466;19;19919;-86
2023/03/16 01:41:21;;;;;;;;;;;4.80;52.10;;;3.14;56.11;101772.53;12263551;19;19915;-86
2023/03/16 01:46:00;;;;;;;;;;;4.80;52.10;;;3.23;56.14;101787.94;12260592;19;19911;-86
2023/03/16 01:50:03;;;;;;;;;;;4.90;52.10;;;3.15;56.09;101777.66;12265161;19;19925;-86
2023/03/16 01:54:18;;;;;;;;;;;4.80;52.10;;;3.21;56.19;101779.34;12261631;19;19986;-85
2023/03/16 01:58:21;;;;;;;;;;;4.80;52.10;;;3.15;56.22;101775.09;12262313;19;19918;-86
2023/03/16 02:02:28;;;;;;;;;;;5.10;52.20;;;3.02;56.17;101740.75;12258535;19;19907;-85
2023/03/16 02:06:31;;;;;;;;;;;4.80;52.10;;;3.14;56.15;101765.63;12261398;19;19915;-86
2023/03/16 02:10:37;;;;;;;;;;;4.80;52.10;;;3.09;56.08;101765.66;12257118;19;20236;-86
2023/03/16 02:14:39;;;;;;;;;;;4.80;52.10;;;2.87;55.97;101725.41;12262004;19;19978;-86
2023/03/16 02:18:41;;;;;;;;;;;4.80;52.10;;;3.10;56.18;101769.09;12260672;19;19919;-85
2023/03/16 02:22:46;;;;;;;;;;;4.80;52.10;;;2.76;56.01;101706.59;12253134;19;19998;-86
2023/03/16 02:26:56;;;;;;;;;;;4.80;52.10;;;3.07;56.07;101767.38;12259629;19;19929;-86
2023/03/16 02:31:03;;;;;;;;;;;4.70;52.00;;;3.05;56.00;101769.16;12256045;19;19915;-86
2023/03/16 02:35:06;;;;;;;;;;;4.70;52.00;;;2.85;56.05;101737.47;12257431;19;20337;-86
2023/03/16 02:39:09;;;;;;;;;;;4.70;52.00;;;3.01;56.24;101767.44;12255887;19;19997;-86
2023/03/16 02:43:22;;;;;;;;;;;4.70;52.20;;;2.74;55.96;101721.22;12255829;19;19915;-86
2023/03/16 02:47:44;;;;;;;;;;;4.70;52.00;;;2.73;55.99;101722.94;12257575;19;19925;-86
2023/03/16 02:51:47;;;;;;;;;;;4.70;52.10;;;3.01;56.36;101770.03;12255329;19;19926;-86
2023/03/16 02:55:49;;;;;;;;;;;4.70;52.10;;;2.69;56.23;101717.81;12259339;19;19918;-86
2023/03/16 02:59:52;;;;;;;;;;;4.90;52.20;;;2.92;56.07;101761.47;12268266;19;19919;-86
2023/03/16 03:03:53;;;;;;;;;;;4.70;52.10;;;2.90;56.15;101764.09;12267398;19;19911;-86
2023/03/16 03:07:55;;;;;;;;;;;4.70;52.10;;;2.94;56.20;101780.41;12270510;19;19926;-86
2023/03/16 03:11:58;;;;;;;;;;;4.70;52.00;;;2.87;56.10;101764.97;12264359;19;19930;-86
2023/03/16 03:16:00;;;;;;;;;;;4.70;52.00;;;2.99;56.15;101791.53;12266568;19;19944;-86
2023/03/16 03:20:12;;;;;;;;;;;4.80;52.10;;;2.93;56.08;101783.84;12264861;19;19946;-85
2023/03/16 03:24:14;;;;;;;;;;;4.60;52.00;;;2.82;56.22;101771.03;12266436;19;20242;-86
2023/03/16 03:28:15;;;;;;;;;;;4.60;52.00;;;2.88;56.23;101787.31;12266950;19;19923;-85
2023/03/16 03:32:17;;;;;;;;;;;4.60;52.00;;;2.78;56.07;101780.50;12261836;19;19917;-85
2023/03/16 03:36:21;;;;;;;;;;;4.60;52.00;;;2.64;56.11;101767.66;12268553;19;19919;-86
2023/03/16 03:40:23;;;;;;;;;;;4.50;52.00;;;2.70;56.33;101784.84;12264095;19;19922;-85
2023/03/16 03:44:35;;;;;;;;;;;4.50;51.90;;;2.77;56.12;101811.47;12266852;19;19918;-85
2023/03/16 03:48:37;;;;;;;;;;;4.40;51.90;;;2.71;56.01;101801.19;12266785;19;19922;-85
2023/03/16 03:52:39;;;;;;;;;;;4.40;52.30;;;2.39;56.22;101750.63;12263684;19;19962;-85
2023/03/16 03:56:41;;;;;;;;;;;4.30;51.90;;;2.65;56.26;101802.06;12265079;19;19926;-85
2023/03/16 04:00:47;;;;;;;;;;;4.30;51.90;;;2.64;56.05;101808.94;12261039;19;20376;-86
2023/03/16 04:04:49;;;;;;;;;;;4.30;51.90;;;2.60;56.23;101804.66;12264934;19;19923;-85
2023/03/16 04:08:53;;;;;;;;;;;4.30;52.00;;;2.39;56.12;101776.41;12264165;19;19923;-85
2023/03/16 04:12:59;;;;;;;;;;;4.50;52.10;;;2.51;56.29;101799.56;12258768;19;20361;-86
2023/03/16 04:17:06;;;;;;;;;;;4.40;52.00;;;2.49;56.33;101798.69;12263889;19;20277;-85
2023/03/16 04:21:16;;;;;;;;;;;4.20;52.00;;;2.51;56.11;101807.28;12259928;19;19918;-85
2023/03/16 04:25:18;;;;;;;;;;;4.20;52.00;;;2.14;56.24;101748.16;12260138;19;19915;-85
2023/03/16 04:29:24;;;;;;;;;;;4.10;52.00;;;2.46;56.28;101816.78;12260731;19;20273;-86
2023/03/16 04:33:26;;;;;;;;;;;4.20;52.00;;;2.28;56.17;101793.63;12258513;19;19915;-85
2023/03/16 04:37:28;;;;;;;;;;;4.10;51.90;;;2.15;56.21;101782.50;12262881;19;19914;-85
2023/03/16 04:41:30;;;;;;;;;;;4.00;51.90;;;2.00;56.24;101773.13;12259733;19;20337;-86
2023/03/16 04:45:43;;;;;;;;;;;4.00;51.90;;;2.24;56.16;101817.69;12258658;19;19923;-85
2023/03/16 04:49:45;;;;;;;;;;;4.00;51.90;;;2.16;56.08;101817.69;12259606;19;19936;-85
2023/03/16 04:53:47;;;;;;;;;;;3.90;51.90;;;2.22;56.28;101831.44;12256480;19;20020;-85
2023/03/16 04:58:00;;;;;;;;;;;3.90;51.90;;;2.02;56.35;101802.28;12256648;19;19918;-85
2023/03/16 05:02:06;;;;;;;;;;;3.80;51.90;;;2.19;56.07;101828.88;12254293;19;19915;-85
2023/03/16 05:06:09;;;;;;;;;;;3.80;52.00;;;2.15;56.29;101824.59;12254770;19;19910;-85
2023/03/16 05:10:14;;;;;;;;;;;4.10;52.10;;;2.18;56.27;101824.56;12257361;19;19978;-85
2023/03/16 05:14:15;;;;;;;;;;;3.90;52.10;;;2.16;56.38;101821.16;12260897;19;19923;-84
2023/03/16 05:18:32;;;;;;;;;;;3.90;52.10;;;2.24;56.36;101834.00;12258047;19;20671;-85
2023/03/16 05:22:36;;;;;;;;;;;3.90;52.10;;;2.23;56.34;101827.13;12252515;19;19919;-85
2023/03/16 05:27:04;;;;;;;;;;;3.90;52.10;;;1.99;56.20;101792.00;12257602;19;20333;-85
2023/03/16 05:31:06;;;;;;;;;;;3.90;52.10;;;1.96;56.24;101790.28;12251722;19;20368;-85
2023/03/16 05:35:13;;;;;;;;;;;4.00;52.10;;;2.02;56.44;101806.59;12258423;19;19918;-85
2023/03/16 05:39:15;;;;;;;;;;;3.90;52.10;;;2.25;56.31;101842.63;12256242;19;19922;-85
2023/03/16 05:43:21;;;;;;;;;;;4.00;52.10;;;2.21;56.27;101844.31;12257559;19;20257;-85
2023/03/16 05:47:25;;;;;;;;;;;3.90;52.10;;;1.95;56.22;101805.75;12253844;19;20005;-85
2023/03/16 05:51:31;;;;;;;;;;;3.90;52.10;;;2.12;56.33;101837.47;12254976;19;19929;-87
2023/03/16 05:55:35;;;;;;;;;;;3.90;52.10;;;2.19;56.22;101849.50;12253973;19;20233;-86
2023/03/16 05:59:41;;;;;;;;;;;3.90;52.10;;;2.11;56.31;101838.34;12253849;19;19941;-88
2023/03/16 06:03:49;;;;;;;;;;;3.90;52.10;;;2.21;56.35;101852.94;12253278;19;19911;-85
2023/03/16 06:07:54;;;;;;;;;;;3.90;52.00;;;2.18;56.31;101858.06;12257568;19;20589;-85
2023/03/16 06:11:57;;;;;;;;;;;4.20;52.20;;;1.91;56.54;101814.34;12254886;19;19978;-84
2023/03/16 06:16:01;;;;;;;;;;;4.00;52.10;;;1.90;56.52;101805.75;12256289;19;19930;-85
2023/03/16 06:20:10;;;;;;;;;;;4.00;52.10;;;2.22;56.37;101872.69;12256019;19;19919;-85
2023/03/16 06:24:13;;;;;;;;;;;3.90;52.10;;;2.12;56.37;101862.38;12252484;19;19926;-87
2023/03/16 06:28:15;;;;;;;;;;;4.00;52.10;;;2.20;56.62;101884.69;12252376;19;19923;-84
2023/03/16 06:32:17;;;;;;;;;;;4.00;52.20;;;2.17;56.45;101869.25;12256026;19;19911;-84
2023/03/16 06:36:20;;;;;;;;;;;4.00;52.30;;;2.22;56.63;101876.97;12265319;19;19911;-85
2023/03/16 06:40:27;;;;;;;;;;;4.00;52.30;;;2.30;56.50;101890.69;12264016;19;19911;-86
2023/03/16 06:44:30;;;;;;;;;;;4.10;52.30;;;2.37;56.70;101907.00;12263296;19;20332;-86
2023/03/16 06:48:38;;;;;;;;;;;4.00;52.30;;;2.34;56.47;101901.84;12265382;19;19938;-85
2023/03/16 06:52:40;;;;;;;;;;;4.10;52.40;;;2.42;56.61;101910.44;12259895;19;19918;-85
2023/03/16 06:56:42;;;;;;;;;;;4.40;52.50;;;2.42;56.64;101900.13;12266034;19;19919;-85
2023/03/16 07:00:44;;;;;;;;;;;4.30;52.60;;;2.44;56.76;101898.41;12262300;19;20250;-85
2023/03/16 07:04:45;;;;;;;;;;;4.30;52.60;;;2.25;56.69;101856.34;12258491;19;19927;-87
2023/03/16 07:08:47;;;;;;;;;;;4.30;52.60;;;2.70;56.72;101923.22;12262080;19;19915;-86
2023/03/16 07:12:49;;;;;;;;;;;4.50;52.70;;;2.80;56.68;101927.50;12257246;19;20353;-86
2023/03/16 07:16:51;;;;;;;;;;;4.50;53.10;;;2.46;56.78;101849.41;12261609;19;19918;-86
2023/03/16 07:20:54;;;;;;;;;;;4.80;52.90;;;2.95;56.85;101935.19;12259181;19;19930;-85
2023/03/16 07:24:58;;;;;;;;;;;4.70;52.80;;;3.02;57.14;101930.84;12260754;19;19915;-85
2023/03/16 07:29:05;;;;;;;;;;;4.80;52.90;;;2.91;56.89;101902.50;12263390;19;19930;-85
2023/03/16 07:33:08;;;;;;;;;;;4.90;53.00;;;3.13;57.01;101921.31;12257629;19;19930;-85
2023/03/16 07:37:10;;;;;;;;;;;5.00;52.90;;;3.37;57.05;101961.66;12259069;19;20248;-86
2023/03/16 07:41:12;;;;;;;;;;;5.10;52.90;;;3.39;57.10;101941.00;12258255;19;19915;-85
2023/03/16 07:45:16;;;;;;;;;;;5.40;53.00;;;3.23;57.11;101904.94;12255751;19;20256;-84
2023/03/16 07:49:20;;;;;;;;;;;5.40;52.90;;;3.47;57.19;101937.50;12262023;19;19915;-85
2023/03/16 07:53:23;;;;;;;;;;;5.40;52.80;;;3.57;57.06;101932.28;12254661;19;19939;-85
2023/03/16 07:57:32;;;;;;;;;;;5.60;52.90;;;3.79;57.00;101961.41;12256685;19;19911;-87
2023/03/16 08:01:34;;;;;;;;;;;5.70;52.90;;;3.75;57.17;101937.31;12256086;19;20289;-87
2023/03/16 08:05:38;;;;;;;;;;;5.90;52.90;;;3.92;57.04;101940.63;12253894;19;19948;-87
2023/03/16 08:09:46;;;;;;;;;;;5.80;52.90;;;4.07;57.35;101938.78;12257118;19;19931;-87
2023/03/16 08:13:53;;;;;;;;;;;6.00;53.00;;;4.21;57.33;101939.50;12256709;19;19919;-86
2023/03/16 08:17:55;;;;;;;;;;;6.10;53.10;;;4.52;57.34;101958.19;12258260;19;19923;-86
2023/03/16 08:22:00;;;;;;;;;;;6.30;53.30;;;4.64;57.39;101946.84;12254354;19;19918;-87
2023/03/16 08:26:07;;;;;;;;;;;6.70;53.40;;;4.92;57.71;101951.72;12254579;19;20252;-87
2023/03/16 08:30:11;;;;;;;;;;;6.70;53.40;;;5.09;57.72;101942.84;12256786;19;19946;-88
2023/03/16 08:34:16;;;;;;;;;;;7.00;53.30;;;5.43;57.58;101951.91;12259004;19;19922;-86
2023/03/16 08:38:19;;;;;;;;;;;7.50;53.40;;;5.63;57.73;101956.81;12258885;19;19918;-86
2023/03/16 08:42:22;;;;;;;;;;;7.50;53.20;;;5.62;57.79;101924.00;12255080;19;19936;-88
2023/03/16 08:46:29;;;;;;;;;;;7.70;53.20;;;6.00;57.85;101951.09;12254031;19;19925;-86
2023/03/16 08:50:33;;;;;;;;;;;7.90;53.00;;;6.23;57.91;101953.28;12256138;19;19927;-87
2023/03/16 08:54:35;;;;;;;;;;;8.50;53.20;;;6.38;57.82;101943.50;12258662;19;19911;-87
2023/03/16 08:58:38;;;;;;;;;;;8.40;53.10;;;6.51;57.67;101925.97;12256711;19;19918;-86
2023/03/16 09:02:41;;;;;;;;;;;8.60;53.10;;;6.72;57.87;101944.59;12257224;19;20428;-87
2023/03/16 09:06:42;;;;;;;;;;;8.90;53.00;;;7.07;57.75;101962.94;12258048;19;19919;-86
2023/03/16 09:10:45;;;;;;;;;;;9.00;52.90;;;7.27;57.90;101964.25;12256355;19;19948;-86
2023/03/16 09:14:47;;;;;;;;;;;9.30;52.80;;;7.38;57.72;101959.69;12260263;19;19923;-86
2023/03/16 09:18:50;;;;;;;;;;;9.50;52.70;;;7.64;57.86;101966.91;12256966;19;19923;-86
2023/03/16 09:22:53;;;;;;;;;;;9.80;53.00;;;7.90;57.99;101981.88;12251872;19;19919;-86
2023/03/16 09:26:55;;;;;;;;;;;9.80;52.70;;;8.09;57.78;101990.09;12256258;19;20364;-86
2023/03/16 09:30:57;;;;;;;;;;;10.00;52.50;;;8.28;57.97;101977.47;12256566;19;19938;-86
2023/03/16 09:34:59;;;;;;;;;;;10.20;52.50;;;8.38;57.89;101973.75;12258952;19;19959;-86
2023/03/16 09:39:02;;;;;;;;;;;10.40;52.30;;;8.62;57.71;101989.66;12255758;19;20427;-86
2023/03/16 09:43:17;;;;;;;;;;;10.60;52.10;;;8.76;57.62;101984.91;12255043;19;19915;-86
2023/03/16 09:47:26;;;;;;;;;;;10.70;51.80;;;8.90;57.70;101987.13;12278007;19;19915;-86
2023/03/16 09:51:36;;;;;;;;;;;10.90;51.90;;;9.04;57.73;101979.78;12294728;19;19911;-87
2023/03/16 09:55:41;;;;;;;;;;;11.00;52.00;;;9.25;57.72;101996.56;12306760;19;19915;-86
2023/03/16 09:59:44;;;;;;;;;;;11.20;52.00;;;9.16;57.65;101952.53;12306191;19;19914;-86
2023/03/16 10:04:10;;;;;;;;;;;11.40;51.50;;;9.58;57.56;101992.97;12302238;19;19907;-86
2023/03/16 10:08:14;;;;;;;;;;;11.50;50.50;;;9.71;57.49;101995.16;12300771;19;19911;-86
2023/03/16 10:12:16;;;;;;;;;;;11.60;51.20;;;9.80;57.67;101987.94;12282311;19;19925;-87
2023/03/16 10:16:54;;;;;;;;;;;11.80;51.30;;;9.96;57.48;101979.59;12274460;19;19950;-87
2023/03/16 10:20:57;;;;;;;;;;;11.90;51.50;;;10.03;57.66;101982.84;12271781;19;20029;-87
2023/03/16 10:25:33;;;;;;;;;;;12.00;51.50;;;10.15;57.40;101979.84;12270901;19;19922;-87
2023/03/16 10:29:35;;;;;;;;;;;12.10;51.60;;;10.19;57.26;101976.22;12269529;19;19922;-81
2023/03/16 10:33:38;;;;;;;;;;;12.10;50.50;;;10.30;57.23;101975.91;12277745;19;19919;-87
2023/03/16 10:37:40;;;;;;;;;;;12.20;50.50;;;10.44;57.27;101975.41;12278150;19;19929;-85
2023/03/16 10:41:44;;;;;;;;;;;12.30;51.00;;;10.58;57.15;101988.84;12280320;19;19915;-83
2023/03/16 10:45:46;;;;;;;;;;;12.40;51.20;;;10.44;57.33;101930.19;12280706;19;19922;-84
2023/03/16 10:49:50;;;;;;;;;;;12.60;51.20;;;10.76;57.08;101961.22;12273149;19;20007;-85
2023/03/16 10:53:51;;;;;;;;;;;12.60;50.40;;;10.58;56.85;101920.94;12276120;19;19930;-85
2023/03/16 10:57:54;;;;;;;;;;;12.70;49.80;;;10.71;56.89;101926.56;12275813;19;19930;-85
2023/03/16 11:01:56;;;;;;;;;;;12.80;49.10;;;10.93;56.74;101952.75;12276534;19;19987;-86
2023/03/16 11:05:59;;;;;;;;;;;12.80;49.50;;;10.97;56.94;101950.91;12278257;19;19923;-84
2023/03/16 11:10:32;;;;;;;;;;;12.90;49.00;;;11.07;56.79;101952.25;12275540;19;19939;-86
2023/03/16 11:14:36;;;;;;;;;;;12.90;49.50;;;11.28;56.90;101967.13;12279236;19;20205;-84
2023/03/16 11:18:57;;;;;;;;;;;13.00;50.20;;;11.41;56.80;101964.06;12282812;19;19911;-84
2023/03/16 11:23:00;;;;;;;;;;;13.10;49.20;;;11.47;56.65;101955.97;12285763;19;19930;-84
2023/03/16 11:27:07;;;;;;;;;;;13.20;49.00;;;11.56;56.34;101965.19;12288490;19;19922;-84
2023/03/16 11:31:48;;;;;;;;;;;13.30;48.60;;;11.62;56.34;101941.44;12285727;19;19911;-84
2023/03/16 11:36:16;;;;;;;;;;;13.40;48.30;;;11.79;56.51;101952.06;12286602;19;19927;-84
2023/03/16 11:40:30;;;;;;;;;;;13.50;49.70;;;11.84;56.31;101947.50;12283027;19;20267;-86
2023/03/16 11:44:39;;;;;;;;;;;13.60;49.20;;;11.82;56.27;101932.75;12283557;19;20327;-84
2023/03/16 11:49:09;;;;;;;;;;;13.60;49.30;;;11.87;56.47;101930.84;12286468;19;19915;-84
2023/03/16 11:53:19;;;;;;;;;;;13.70;49.40;;;11.91;56.25;101917.56;12280290;19;19911;-83
2023/03/16 11:57:40;;;;;;;;;;;13.70;49.30;;;12.09;56.10;101933.41;12284099;19;20343;-84
2023/03/16 12:02:08;;;;;;;;;;;13.80;45.60;;;12.12;56.05;101917.56;12276661;19;20281;-84
2023/03/16 12:06:29;;;;;;;;;;;13.80;48.30;;;11.99;55.81;101893.69;12278251;19;20303;-84
2023/03/16 12:10:55;;;;;;;;;;;13.90;48.20;;;12.16;55.86;101920.00;12280488;19;19923;-84
2023/03/16 12:15:23;;;;;;;;;;;13.90;49.10;;;12.26;55.84;101912.63;12282038;19;19938;-83
2023/03/16 12:19:38;;;;;;;;;;;13.90;48.10;;;12.31;55.87;101910.66;12282457;19;19918;-84
2023/03/16 12:23:48;;;;;;;;;;;14.00;48.80;;;12.33;55.69;101890.47;12276397;19;20265;-83
2023/03/16 12:27:53;;;;;;;;;;;14.00;48.90;;;12.45;55.67;101896.94;12280096;19;20339;-84
2023/03/16 12:32:13;;;;;;;;;;;14.10;48.80;;;12.36;55.33;101871.13;12275343;19;20356;-84
2023/03/16 12:36:15;;;;;;;;;;;14.10;44.90;;;12.50;55.50;101889.75;12275100;19;19932;-84
2023/03/16 12:40:21;;;;;;;;;;;14.20;45.10;;;12.54;55.45;101887.81;12278800;19;19919;-83
2023/03/16 12:44:31;;;;;;;;;;;14.20;43.70;;;12.57;55.25;101874.56;12273646;19;19910;-84
2023/03/16 12:48:43;;;;;;;;;;;14.20;46.60;;;12.48;55.23;101859.28;12277756;19;19915;-84
2023/03/16 12:52:49;;;;;;;;;;;14.20;41.90;;;12.17;54.87;101808.25;12272168;19;20277;-84
2023/03/16 12:56:53;;;;;;;;;;;14.20;43.50;;;12.29;54.89;101823.44;12275714;19;20341;-85
2023/03/16 13:00:58;;;;;;;;;;;14.20;47.10;;;12.34;54.66;101845.03;12270766;19;19923;-84
2023/03/16 13:05:10;;;;;;;;;;;14.20;47.00;;;12.45;54.65;101854.16;12272281;19;19952;-83
2023/03/16 13:09:17;;;;;;;;;;;14.10;45.90;;;12.40;54.63;101839.50;12273396;19;19928;-84
2023/03/16 13:13:24;;;;;;;;;;;14.10;43.30;;;12.49;54.50;101845.25;12269117;19;19931;-84
2023/03/16 13:17:31;;;;;;;;;;;14.10;45.50;;;12.33;54.42;101819.75;12271518;19;19915;-83
2023/03/16 13:21:36;;;;;;;;;;;14.10;45.30;;;12.46;54.33;101841.00;12268671;19;19914;-84
2023/03/16 13:25:41;;;;;;;;;;;14.10;46.60;;;12.44;54.26;101828.88;12269536;19;20251;-84
2023/03/16 13:29:52;;;;;;;;;;;14.00;43.50;;;12.19;53.85;101793.31;12269076;19;19948;-83
2023/03/16 13:33:55;;;;;;;;;;;14.00;40.30;;;12.39;53.93;101829.97;12269256;19;19926;-83
2023/03/16 13:38:05;;;;;;;;;;;14.00;44.50;;;12.39;53.82;101834.31;12271506;19;19914;-84
2023/03/16 13:42:21;;;;;;;;;;;14.00;45.10;;;12.45;53.83;101841.06;12266515;19;19922;-84
2023/03/16 13:46:27;;;;;;;;;;;14.00;44.90;;;12.39;54.03;101839.56;12264973;19;19939;-84
2023/03/16 13:50:31;;;;;;;;;;;14.00;45.00;;;12.17;53.78;101795.16;12266863;19;19967;-84
2023/03/16 13:54:36;;;;;;;;;;;14.00;43.70;;;12.51;53.73;101848.66;12267073;19;19926;-84
2023/03/16 13:58:39;;;;;;;;;;;14.00;43.50;;;12.29;53.87;101799.84;12262179;19;19918;-84
2023/03/16 14:02:42;;;;;;;;;;;14.00;45.90;;;12.49;53.75;101824.28;12264143;19;19915;-83
2023/03/16 14:06:51;;;;;;;;;;;14.00;44.70;;;12.56;53.73;101810.00;12264969;19;19931;-84
2023/03/16 14:10:55;;;;;;;;;;;14.10;46.10;;;12.55;53.68;101814.38;12265973;19;19915;-83
2023/03/16 14:14:57;;;;;;;;;;;14.10;42.40;;;12.55;53.41;101801.25;12265279;19;19919;-84
2023/03/16 14:19:07;;;;;;;;;;;14.10;42.10;;;12.41;53.36;101787.97;12265062;19;19930;-84
2023/03/16 14:23:23;;;;;;;;;;;14.10;42.70;;;12.38;53.40;101788.09;12265027;19;19939;-83
2023/03/16 14:27:31;;;;;;;;;;;14.10;41.80;;;12.46;53.13;101787.75;12260610;19;19914;-84
2023/03/16 14:31:37;;;;;;;;;;;14.00;40.10;;;12.36;53.06;101782.91;12260097;19;19943;-84
2023/03/16 14:35:41;;;;;;;;;;;14.00;42.70;;;12.40;52.85;101794.97;12266226;19;19955;-84
2023/03/16 14:39:43;;;;;;;;;;;13.90;36.30;;;12.41;52.95;101806.31;12261331;19;20033;-84
2023/03/16 14:43:56;;;;;;;;;;;13.90;42.40;;;12.34;52.91;101790.03;12258285;19;19914;-83
2023/03/16 14:48:09;;;;;;;;;;;13.90;43.60;;;12.31;52.99;101778.81;12264045;19;19926;-83
2023/03/16 14:52:26;;;;;;;;;;;13.90;42.90;;;12.27;52.61;101762.41;12254206;19;20261;-84
2023/03/16 14:56:33;;;;;;;;;;;13.80;43.20;;;12.25;52.46;101758.16;12275361;19;20242;-85
2023/03/16 15:00:35;;;;;;;;;;;13.80;39.70;;;12.24;52.61;101761.69;12282584;19;20020;-85
2023/03/16 15:04:36;;;;;;;;;;;13.80;38.80;;;11.92;52.42;101707.25;12284867;19;19926;-85
2023/03/16 15:08:43;;;;;;;;;;;13.70;42.20;;;12.12;52.20;101744.75;12287540;19;20320;-85
2023/03/16 15:12:53;;;;;;;;;;;13.70;42.60;;;12.07;52.25;101747.59;12280613;19;20462;-85
2023/03/16 15:16:56;;;;;;;;;;;13.70;41.60;;;11.89;52.32;101724.88;12287827;19;19911;-84
2023/03/16 15:20:58;;;;;;;;;;;13.60;43.20;;;12.16;52.16;101765.50;12282669;19;20332;-84
2023/03/16 15:25:07;;;;;;;;;;;13.60;41.60;;;12.05;52.24;101732.88;12283335;19;19915;-85
2023/03/16 15:29:10;;;;;;;;;;;13.60;42.70;;;12.08;52.28;101741.44;12290914;19;20317;-83
2023/03/16 15:33:13;;;;;;;;;;;13.60;42.80;;;12.04;52.09;101725.94;12282843;19;19914;-85
2023/03/16 15:37:16;;;;;;;;;;;13.50;41.60;;;12.04;52.05;101750.34;12284254;19;19919;-84
2023/03/16 15:41:17;;;;;;;;;;;13.50;42.60;;;11.78;52.10;101719.22;12278527;19;19942;-84
2023/03/16 15:45:21;;;;;;;;;;;13.50;43.20;;;11.88;51.82;101744.97;12269599;19;19915;-84
2023/03/16 15:49:22;;;;;;;;;;;13.40;40.10;;;11.90;51.66;101753.56;12277554;19;19923;-84
2023/03/16 15:53:30;;;;;;;;;;;13.40;35.30;;;11.86;51.50;101752.03;12269617;19;19915;-84
2023/03/16 15:57:32;;;;;;;;;;;13.30;40.70;;;11.80;51.64;101746.16;12276612;19;19911;-84
2023/03/16 16:01:43;;;;;;;;;;;13.30;39.50;;;11.79;51.43;101742.69;12263167;19;19952;-84
2023/03/16 16:05:45;;;;;;;;;;;13.30;41.20;;;11.76;51.57;101737.59;12268816;19;19923;-84
2023/03/16 16:09:47;;;;;;;;;;;13.20;37.70;;;11.71;51.61;101729.09;12272143;19;19946;-84
2023/03/16 16:13:49;;;;;;;;;;;13.20;42.00;;;11.71;51.51;101732.56;12267152;19;19932;-83
2023/03/16 16:17:55;;;;;;;;;;;13.20;42.70;;;11.70;51.30;101722.19;12252904;19;19960;-85
2023/03/16 16:21:58;;;;;;;;;;;13.10;42.30;;;11.69;51.50;101737.03;12255472;19;20253;-85
2023/03/16 16:26:11;;;;;;;;;;;13.10;39.20;;;11.57;51.48;101718.41;12260856;19;19911;-83
2023/03/16 16:30:25;;;;;;;;;;;13.10;41.90;;;11.61;51.34;101739.13;12263124;19;19915;-85
2023/03/16 16:34:26;;;;;;;;;;;13.00;41.80;;;11.24;51.15;101683.16;12266977;19;19938;-84
2023/03/16 16:38:29;;;;;;;;;;;13.00;42.10;;;11.48;51.31;101730.97;12267688;19;19923;-84
2023/03/16 16:42:30;;;;;;;;;;;12.90;43.00;;;11.47;51.17;101739.69;12261961;19;19911;-84
2023/03/16 16:46:36;;;;;;;;;;;12.90;42.50;;;11.42;51.12;101741.69;12260253;19;19980;-85
2023/03/16 16:50:38;;;;;;;;;;;12.90;43.30;;;11.05;51.21;101683.09;12270270;19;19943;-85
2023/03/16 16:54:40;;;;;;;;;;;12.80;43.10;;;11.14;51.13;101692.31;12270456;19;19915;-84
2023/03/16 16:58:42;;;;;;;;;;;12.70;43.70;;;11.27;51.14;101721.41;12272650;19;19922;-86
2023/03/16 17:02:46;;;;;;;;;;;12.70;43.90;;;11.15;50.99;101714.94;12266868;19;20253;-85
2023/03/16 17:06:51;;;;;;;;;;;12.60;44.30;;;10.99;51.02;101704.25;12264816;19;19930;-84
2023/03/16 17:10:53;;;;;;;;;;;12.50;44.60;;;10.93;50.73;101706.25;12262502;19;19927;-84
2023/03/16 17:14:54;;;;;;;;;;;12.40;45.00;;;10.89;50.85;101710.78;12268144;19;19922;-84
2023/03/16 17:18:55;;;;;;;;;;;12.30;44.90;;;10.68;50.89;101693.34;12269497;19;20309;-85
2023/03/16 17:22:57;;;;;;;;;;;12.30;44.80;;;10.52;50.58;101680.03;12269907;19;20542;-84
2023/03/16 17:26:59;;;;;;;;;;;12.10;44.80;;;10.45;50.71;101697.72;12271753;19;19919;-85
2023/03/16 17:31:01;;;;;;;;;;;11.90;44.80;;;10.30;50.68;101696.53;12266641;19;19917;-84
2023/03/16 17:35:11;;;;;;;;;;;11.80;45.20;;;9.88;50.56;101652.00;12263681;19;19975;-84
2023/03/16 17:39:21;;;;;;;;;;;11.60;45.20;;;10.01;50.54;101697.59;12265914;19;19918;-83
2023/03/16 17:43:22;;;;;;;;;;;11.50;45.30;;;9.79;50.71;101679.28;12263459;19;19915;-85
2023/03/16 17:47:26;;;;;;;;;;;11.40;45.40;;;9.64;50.68;101682.44;12260215;19;19928;-84
2023/03/16 17:51:27;;;;;;;;;;;11.30;45.30;;;9.74;50.55;101705.53;12263579;19;19922;-84
2023/03/16 17:55:29;;;;;;;;;;;11.10;45.40;;;9.68;50.44;101718.81;12265380;19;19926;-84
2023/03/16 17:59:31;;;;;;;;;;;11.10;45.50;;;9.42;50.57;101692.78;12262396;19;19919;-83
2023/03/16 18:03:32;;;;;;;;;;;11.00;45.40;;;9.46;50.39;101713.50;12256993;19;19919;-83
2023/03/16 18:07:34;;;;;;;;;;;10.90;45.60;;;9.50;50.54;101740.28;12262673;19;19938;-84
2023/03/16 18:11:38;;;;;;;;;;;10.80;45.50;;;9.12;50.47;101674.69;12261239;19;19919;-85
2023/03/16 18:15:40;;;;;;;;;;;10.70;45.60;;;9.14;50.43;101691.13;12264305;19;19914;-85
2023/03/16 18:19:42;;;;;;;;;;;10.60;45.30;;;9.13;50.40;101704.19;12264591;19;19919;-84
2023/03/16 18:23:44;;;;;;;;;;;10.50;45.40;;;8.97;50.51;101698.66;12262181;19;19922;-85
2023/03/16 18:27:45;;;;;;;;;;;10.50;45.50;;;8.91;50.44;101701.44;12262962;19;19947;-86
2023/03/16 18:31:47;;;;;;;;;;;10.30;45.50;;;8.78;50.28;101688.84;12266272;19;20004;-85
2023/03/16 18:35:50;;;;;;;;;;;10.20;45.60;;;8.72;50.29;101690.78;12261995;19;20274;-85
2023/03/16 18:39:51;;;;;;;;;;;10.10;45.50;;;8.62;50.36;101692.84;12264913;19;19911;-85